Terminal Aerodrome Forecast
Issued by NWS Sterling, VA

Current Version | Previous Version | Text Only | Print | Product List | Glossary Off
Versions: 1 2 3 4 5 6 7 8 9 10 11 12

000
FTUS41 KLWX 191100
TAFMRB
TAF
KMRB 191137Z 1912/2012 30007KT P6SM BKN040
     FM191400 30010KT P6SM SCT040
     FM192300 31006KT P6SM FEW040 SCT250=

USA.gov is the U.S. government's official web portal to all federal, state and local government web resources and services.